createdAt,value
2018-11-11T00:00:25.936Z,956.75
2018-11-11T00:01:25.874Z,956.74
2018-11-11T00:02:25.811Z,956.73
2018-11-11T00:03:25.764Z,956.66
2018-11-11T00:04:25.679Z,956.66
2018-11-11T00:05:25.616Z,956.67
2018-11-11T00:06:25.556Z,956.69
2018-11-11T00:07:25.489Z,956.63
2018-11-11T00:08:25.429Z,956.58
2018-11-11T00:09:25.362Z,956.56
2018-11-11T00:10:25.302Z,956.54
2018-11-11T00:11:25.238Z,956.49
2018-11-11T00:12:25.168Z,956.45
2018-11-11T00:13:25.103Z,956.44
2018-11-11T00:14:25.041Z,956.44
2018-11-11T00:15:24.981Z,956.55
2018-11-11T00:16:24.915Z,956.77
2018-11-11T00:17:24.847Z,957.07
2018-11-11T00:18:24.782Z,957.32
2018-11-11T00:19:24.720Z,957.44
2018-11-11T00:20:24.654Z,957.38
2018-11-11T00:21:24.589Z,957.27
2018-11-11T00:22:24.541Z,957.39
2018-11-11T00:23:24.461Z,957.48
2018-11-11T00:24:24.398Z,957.47
2018-11-11T00:25:24.335Z,957.35
2018-11-11T00:26:24.270Z,957.23
2018-11-11T00:27:24.202Z,957.15
2018-11-11T00:28:24.207Z,957.06
2018-11-11T00:29:24.085Z,957.07
2018-11-11T00:30:24.023Z,957.01
2018-11-11T00:31:23.959Z,956.95
2018-11-11T00:32:23.884Z,956.93
2018-11-11T00:33:23.836Z,956.97
2018-11-11T00:34:23.761Z,956.98
2018-11-11T00:35:23.691Z,957.01
2018-11-11T00:36:23.626Z,957.04
2018-11-11T00:37:23.567Z,957.12
2018-11-11T00:38:23.504Z,957.30
2018-11-11T00:39:23.444Z,957.45
2018-11-11T00:40:23.369Z,957.57
2018-11-11T00:41:23.314Z,957.51
2018-11-11T00:42:23.256Z,957.45
2018-11-11T00:43:23.185Z,957.41
2018-11-11T00:44:23.108Z,957.42
2018-11-11T00:45:23.051Z,957.45
2018-11-11T00:46:22.991Z,957.44
2018-11-11T00:47:22.919Z,957.45
2018-11-11T00:48:22.856Z,957.39
2018-11-11T00:49:22.806Z,957.35
2018-11-11T00:50:22.725Z,957.33
2018-11-11T00:51:22.687Z,957.33
2018-11-11T00:52:22.617Z,957.30
2018-11-11T00:53:22.535Z,957.29
2018-11-11T00:54:22.473Z,957.29
2018-11-11T00:55:22.408Z,957.30
2018-11-11T00:56:22.347Z,957.35
2018-11-11T00:57:22.281Z,957.37
2018-11-11T00:58:22.213Z,957.44
2018-11-11T00:59:22.155Z,957.32
2018-11-11T01:00:22.091Z,957.26
2018-11-11T01:01:22.026Z,957.29
2018-11-11T01:02:21.965Z,957.26
2018-11-11T01:03:21.897Z,957.23
2018-11-11T01:04:21.829Z,957.22
2018-11-11T01:05:21.771Z,957.24
2018-11-11T01:06:21.706Z,957.25
2018-11-11T01:07:21.636Z,957.27
2018-11-11T01:08:21.574Z,957.30
2018-11-11T01:09:21.507Z,957.35
2018-11-11T01:10:21.446Z,957.37
2018-11-11T01:11:21.383Z,957.27
2018-11-11T01:12:21.426Z,957.22
2018-11-11T01:13:21.247Z,957.16
2018-11-11T01:14:21.217Z,957.04
2018-11-11T01:15:21.143Z,957.04
2018-11-11T01:16:21.058Z,957.05
2018-11-11T01:17:20.996Z,957.01
2018-11-11T01:18:20.932Z,957.02
2018-11-11T01:19:20.866Z,957.26
2018-11-11T01:20:20.803Z,957.61
2018-11-11T01:21:20.739Z,957.80
2018-11-11T01:22:20.683Z,957.77
2018-11-11T01:23:20.610Z,957.62
2018-11-11T01:24:20.550Z,957.59
2018-11-11T01:25:20.497Z,957.58
2018-11-11T01:26:20.413Z,957.68
2018-11-11T01:27:20.352Z,957.64
2018-11-11T01:28:20.311Z,957.76
2018-11-11T01:29:20.224Z,957.84
2018-11-11T01:30:20.161Z,957.99
2018-11-11T01:31:20.115Z,958.04
2018-11-11T01:32:20.036Z,957.96
2018-11-11T01:33:19.966Z,957.91
2018-11-11T01:34:19.904Z,957.92
2018-11-11T01:35:19.839Z,957.95
2018-11-11T01:36:19.772Z,957.94
2018-11-11T01:37:19.708Z,957.86
2018-11-11T01:38:19.646Z,957.98
2018-11-11T01:39:19.582Z,957.94
2018-11-11T01:40:19.516Z,957.94
2018-11-11T01:41:19.453Z,957.99
2018-11-11T01:42:19.388Z,957.98
2018-11-11T01:43:19.324Z,958.02
2018-11-11T01:44:19.259Z,958.03
2018-11-11T01:45:19.194Z,958.08
2018-11-11T01:46:19.132Z,958.08
2018-11-11T01:47:19.084Z,958.05
2018-11-11T01:48:19.019Z,958.06
2018-11-11T01:49:18.935Z,958.08
2018-11-11T01:50:18.874Z,958.03
2018-11-11T01:51:18.832Z,958.06
2018-11-11T01:52:18.746Z,958.03
2018-11-11T01:53:18.688Z,958.09
2018-11-11T01:54:18.615Z,958.08
2018-11-11T01:55:18.555Z,958.07
2018-11-11T01:56:18.489Z,958.06
2018-11-11T01:57:18.423Z,958.13
2018-11-11T01:58:18.363Z,958.11
2018-11-11T01:59:18.291Z,958.22
2018-11-11T02:00:18.230Z,958.24
2018-11-11T02:01:18.164Z,958.26
2018-11-11T02:02:18.099Z,958.23
2018-11-11T02:03:18.039Z,958.26
2018-11-11T02:04:17.971Z,958.28
2018-11-11T02:05:17.912Z,958.26
2018-11-11T02:06:17.839Z,958.27
2018-11-11T02:07:17.783Z,958.23
2018-11-11T02:08:17.714Z,958.21
2018-11-11T02:09:17.660Z,958.23
2018-11-11T02:10:17.592Z,958.25
2018-11-11T02:11:17.528Z,958.23
2018-11-11T02:12:17.454Z,958.22
2018-11-11T02:13:17.393Z,958.17
2018-11-11T02:14:17.343Z,958.20
2018-11-11T02:15:17.264Z,958.18
2018-11-11T02:16:17.202Z,958.16
2018-11-11T02:17:17.135Z,958.14
2018-11-11T02:18:17.073Z,958.07
2018-11-11T02:19:17.016Z,958.05
2018-11-11T02:20:16.952Z,958.05
2018-11-11T02:21:16.980Z,958.13
2018-11-11T02:22:16.814Z,958.13
2018-11-11T02:23:16.752Z,958.13
2018-11-11T02:24:16.701Z,958.23
2018-11-11T02:25:16.620Z,958.27
2018-11-11T02:26:16.561Z,958.20
2018-11-11T02:27:16.496Z,958.17
2018-11-11T02:28:16.431Z,958.13
2018-11-11T02:29:16.368Z,958.08
2018-11-11T02:30:16.302Z,958.03
2018-11-11T02:31:16.239Z,958.05
2018-11-11T02:32:16.178Z,958.06
2018-11-11T02:33:16.152Z,958.17
2018-11-11T02:34:16.049Z,958.30
2018-11-11T02:35:15.978Z,958.47
2018-11-11T02:36:15.916Z,958.59
2018-11-11T02:37:15.879Z,958.70
2018-11-11T02:38:15.791Z,958.62
2018-11-11T02:39:15.722Z,958.55
2018-11-11T02:40:15.660Z,958.47
2018-11-11T02:41:15.598Z,958.46
2018-11-11T02:42:15.538Z,958.50
2018-11-11T02:43:15.472Z,958.54
2018-11-11T02:44:15.401Z,958.56
2018-11-11T02:45:15.339Z,958.52
2018-11-11T02:46:15.289Z,958.54
2018-11-11T02:47:15.213Z,958.55
2018-11-11T02:48:15.143Z,958.54
2018-11-11T02:49:15.082Z,958.50
2018-11-11T02:50:15.018Z,958.51
2018-11-11T02:51:14.956Z,958.49
2018-11-11T02:52:14.889Z,958.47
2018-11-11T02:53:14.827Z,958.38
2018-11-11T02:54:14.762Z,958.37
2018-11-11T02:55:14.702Z,958.36
2018-11-11T02:56:14.640Z,958.27
2018-11-11T02:57:14.569Z,958.28
2018-11-11T02:58:14.512Z,958.26
2018-11-11T02:59:14.440Z,958.29
2018-11-11T03:00:14.384Z,958.21
2018-11-11T03:01:14.312Z,958.16
2018-11-11T03:02:14.248Z,958.17
2018-11-11T03:03:14.185Z,958.16
2018-11-11T03:04:14.185Z,958.15
2018-11-11T03:05:14.055Z,958.18
2018-11-11T03:06:13.991Z,958.17
2018-11-11T03:07:13.937Z,958.23
2018-11-11T03:08:13.864Z,958.20
2018-11-11T03:09:13.809Z,958.17
2018-11-11T03:10:13.738Z,958.16
2018-11-11T03:11:13.668Z,958.23
2018-11-11T03:12:13.608Z,958.20
2018-11-11T03:13:13.557Z,958.15
2018-11-11T03:14:13.480Z,958.11
2018-11-11T03:15:13.418Z,958.13
2018-11-11T03:16:13.348Z,958.17
2018-11-11T03:17:13.285Z,958.22
2018-11-11T03:18:13.223Z,958.19
2018-11-11T03:19:13.155Z,958.25
2018-11-11T03:20:13.092Z,958.22
2018-11-11T03:21:13.022Z,958.24
2018-11-11T03:22:12.964Z,958.19
2018-11-11T03:23:12.907Z,958.18
2018-11-11T03:24:12.838Z,958.18
2018-11-11T03:25:12.775Z,958.18
2018-11-11T03:26:12.706Z,958.17
2018-11-11T03:27:12.643Z,958.15
2018-11-11T03:28:12.573Z,958.08
2018-11-11T03:29:12.515Z,958.04
2018-11-11T03:30:12.451Z,958.03
2018-11-11T03:31:12.397Z,958.01
2018-11-11T03:32:12.330Z,958.01
2018-11-11T03:33:12.267Z,957.97
2018-11-11T03:34:12.190Z,957.98
2018-11-11T03:35:12.155Z,957.93
2018-11-11T03:36:12.088Z,957.85
2018-11-11T03:37:11.999Z,957.81
2018-11-11T03:38:11.940Z,957.79
2018-11-11T03:39:11.872Z,957.83
2018-11-11T03:40:11.812Z,957.93
2018-11-11T03:41:11.747Z,957.99
2018-11-11T03:42:11.688Z,957.99
2018-11-11T03:43:11.624Z,958.04
2018-11-11T03:44:11.581Z,958.09
2018-11-11T03:45:11.485Z,958.14
2018-11-11T03:46:11.432Z,958.20
2018-11-11T03:47:11.355Z,958.23
2018-11-11T03:48:11.291Z,958.30
2018-11-11T03:49:11.227Z,958.28
2018-11-11T03:50:11.164Z,958.32
2018-11-11T03:51:11.103Z,958.33
2018-11-11T03:52:11.034Z,958.37
2018-11-11T03:53:10.970Z,958.47
2018-11-11T03:54:10.908Z,958.54
2018-11-11T03:55:10.842Z,958.55
2018-11-11T03:56:10.784Z,958.57
2018-11-11T03:57:10.709Z,958.55
2018-11-11T03:58:10.649Z,958.52
2018-11-11T03:59:10.585Z,958.54
2018-11-11T04:00:10.518Z,958.58
2018-11-11T04:01:10.453Z,958.62
2018-11-11T04:02:10.390Z,958.64
2018-11-11T04:03:10.329Z,958.59
2018-11-11T04:04:10.267Z,958.67
2018-11-11T04:05:10.201Z,958.61
2018-11-11T04:06:10.140Z,958.66
2018-11-11T04:07:10.067Z,958.59
2018-11-11T04:08:10.005Z,958.61
2018-11-11T04:09:09.943Z,958.59
2018-11-11T04:10:09.889Z,958.63
2018-11-11T04:11:09.812Z,958.65
2018-11-11T04:12:09.752Z,958.63
2018-11-11T04:13:09.682Z,958.61
2018-11-11T04:14:09.626Z,958.58
2018-11-11T04:15:09.554Z,958.53
2018-11-11T04:16:09.492Z,958.46
2018-11-11T04:17:09.423Z,958.43
2018-11-11T04:18:09.360Z,958.41
2018-11-11T04:19:09.305Z,958.38
2018-11-11T04:20:09.229Z,958.37
2018-11-11T04:21:09.166Z,958.38
2018-11-11T04:22:09.104Z,958.37
2018-11-11T04:23:09.069Z,958.37
2018-11-11T04:24:08.975Z,958.33
2018-11-11T04:25:08.910Z,958.33
2018-11-11T04:26:08.849Z,958.36
2018-11-11T04:27:08.776Z,958.36
2018-11-11T04:28:08.722Z,958.36
2018-11-11T04:29:08.662Z,958.43
2018-11-11T04:30:08.584Z,958.44
2018-11-11T04:31:08.524Z,958.40
2018-11-11T04:32:08.459Z,958.43
2018-11-11T04:33:08.397Z,958.37
2018-11-11T04:34:08.332Z,958.41
2018-11-11T04:35:08.275Z,958.38
2018-11-11T04:36:08.202Z,958.39
2018-11-11T04:37:08.141Z,958.38
2018-11-11T04:38:08.075Z,958.38
2018-11-11T04:39:08.064Z,958.38
2018-11-11T04:40:07.942Z,958.39
2018-11-11T04:41:07.879Z,958.35
2018-11-11T04:42:07.813Z,958.34
2018-11-11T04:43:07.751Z,958.37
2018-11-11T04:44:07.689Z,958.29
2018-11-11T04:45:07.622Z,958.27
2018-11-11T04:46:07.558Z,958.18
2018-11-11T04:47:07.495Z,958.19
2018-11-11T04:48:07.429Z,958.16
2018-11-11T04:49:07.403Z,958.16
2018-11-11T04:50:07.295Z,958.10
2018-11-11T04:51:07.235Z,958.05
2018-11-11T04:52:07.178Z,958.12
2018-11-11T04:53:07.105Z,958.08
2018-11-11T04:54:07.045Z,958.11
2018-11-11T04:55:06.981Z,958.15
2018-11-11T04:56:06.912Z,958.09
2018-11-11T04:57:06.848Z,958.13
2018-11-11T04:58:06.784Z,958.10
2018-11-11T04:59:06.720Z,958.03
2018-11-11T05:00:06.664Z,958.03
2018-11-11T05:01:06.603Z,958.01
2018-11-11T05:02:06.543Z,958.03
2018-11-11T05:03:06.459Z,958.08
2018-11-11T05:04:06.396Z,958.16
2018-11-11T05:05:06.332Z,958.22
2018-11-11T05:06:06.271Z,958.24
2018-11-11T05:07:06.203Z,958.28
2018-11-11T05:08:06.135Z,958.31
2018-11-11T05:09:06.075Z,958.30
2018-11-11T05:10:06.020Z,958.43
2018-11-11T05:11:05.943Z,958.43
2018-11-11T05:12:05.882Z,958.50
2018-11-11T05:13:05.813Z,958.53
2018-11-11T05:14:05.752Z,958.57
2018-11-11T05:15:05.687Z,958.56
2018-11-11T05:16:05.623Z,958.62
2018-11-11T05:17:05.558Z,958.63
2018-11-11T05:18:05.495Z,958.62
2018-11-11T05:19:05.440Z,958.65
2018-11-11T05:20:05.369Z,958.74
2018-11-11T05:21:05.302Z,958.70
2018-11-11T05:22:05.239Z,958.71
2018-11-11T05:23:05.176Z,958.67
2018-11-11T05:24:05.107Z,958.62
2018-11-11T05:25:05.050Z,958.57
2018-11-11T05:26:04.979Z,958.50
2018-11-11T05:27:04.910Z,958.47
2018-11-11T05:28:04.849Z,958.52
2018-11-11T05:29:04.783Z,958.49
2018-11-11T05:30:04.726Z,958.52
2018-11-11T05:31:04.655Z,958.49
2018-11-11T05:32:04.598Z,958.48
2018-11-11T05:33:04.521Z,958.47
2018-11-11T05:34:04.461Z,958.46
2018-11-11T05:35:04.413Z,958.44
2018-11-11T05:36:04.331Z,958.40
2018-11-11T05:37:04.265Z,958.38
2018-11-11T05:38:04.204Z,958.37
2018-11-11T05:39:04.142Z,958.38
2018-11-11T05:40:04.076Z,958.38
2018-11-11T05:41:04.013Z,958.38
2018-11-11T05:42:03.953Z,958.38
2018-11-11T05:43:03.878Z,958.39
2018-11-11T05:44:03.818Z,958.37
2018-11-11T05:45:03.761Z,958.36
2018-11-11T05:46:03.686Z,958.38
2018-11-11T05:47:03.623Z,958.42
2018-11-11T05:48:03.580Z,958.43
2018-11-11T05:49:03.496Z,958.45
2018-11-11T05:50:03.433Z,958.50
2018-11-11T05:51:03.370Z,958.57
2018-11-11T05:52:03.317Z,958.65
2018-11-11T05:53:03.231Z,958.68
2018-11-11T05:54:03.185Z,958.75
2018-11-11T05:55:03.109Z,958.74
2018-11-11T05:56:03.038Z,958.73
2018-11-11T05:57:02.979Z,958.64
2018-11-11T05:58:02.913Z,958.58
2018-11-11T05:59:02.876Z,958.51
2018-11-11T06:00:02.784Z,958.48
2018-11-11T06:01:02.722Z,958.51
2018-11-11T06:02:02.660Z,958.50
2018-11-11T06:03:02.596Z,958.52
2018-11-11T06:04:02.530Z,958.51
2018-11-11T06:05:02.470Z,958.46
2018-11-11T06:06:02.394Z,958.48
2018-11-11T06:07:02.332Z,958.50
2018-11-11T06:08:02.267Z,958.53
2018-11-11T06:09:02.202Z,958.56
2018-11-11T06:10:02.139Z,958.56
2018-11-11T06:11:02.078Z,958.56
2018-11-11T06:12:02.023Z,958.55
2018-11-11T06:13:01.949Z,958.50
2018-11-11T06:14:01.885Z,958.43
2018-11-11T06:15:01.828Z,958.30
2018-11-11T06:16:01.747Z,958.30
2018-11-11T06:17:01.686Z,958.26
2018-11-11T06:18:01.664Z,958.32
2018-11-11T06:19:01.559Z,958.37
2018-11-11T06:20:01.493Z,958.49
2018-11-11T06:21:01.432Z,958.54
2018-11-11T06:22:01.374Z,958.49
2018-11-11T06:23:01.303Z,958.57
2018-11-11T06:24:01.234Z,958.57
2018-11-11T06:25:01.186Z,958.58
2018-11-11T06:26:01.102Z,958.59
2018-11-11T06:27:01.041Z,958.62
2018-11-11T06:28:00.999Z,958.63
2018-11-11T06:29:00.912Z,958.63
2018-11-11T06:30:00.851Z,958.64
2018-11-11T06:31:00.784Z,958.64
2018-11-11T06:32:00.720Z,958.66
2018-11-11T06:33:00.658Z,958.64
2018-11-11T06:34:00.642Z,958.63
2018-11-11T06:35:00.521Z,958.68
2018-11-11T06:36:00.458Z,958.59
2018-11-11T06:37:00.394Z,958.53
2018-11-11T06:38:00.342Z,958.42
2018-11-11T06:39:00.265Z,958.37
2018-11-11T06:40:00.200Z,958.31
2018-11-11T06:41:00.137Z,958.28
2018-11-11T06:42:00.074Z,958.33
2018-11-11T06:43:00.011Z,958.34
2018-11-11T06:43:59.942Z,958.43
2018-11-11T06:44:59.882Z,958.49
2018-11-11T06:45:59.809Z,958.57
2018-11-11T06:46:59.748Z,958.61
2018-11-11T06:47:59.702Z,958.63
2018-11-11T06:48:59.626Z,958.57
2018-11-11T06:49:59.557Z,958.63
2018-11-11T06:50:59.493Z,958.56
2018-11-11T06:51:59.431Z,958.52
2018-11-11T06:52:59.360Z,958.51
2018-11-11T06:53:59.295Z,958.50
2018-11-11T06:54:59.244Z,958.50
2018-11-11T06:55:59.170Z,958.50
2018-11-11T06:56:59.120Z,958.56
2018-11-11T06:57:59.077Z,958.63
2018-11-11T06:58:58.972Z,958.72
2018-11-11T06:59:58.909Z,958.73
2018-11-11T07:00:58.863Z,958.78
2018-11-11T07:01:58.784Z,958.80
2018-11-11T07:02:58.715Z,958.84
2018-11-11T07:03:58.651Z,958.85
2018-11-11T07:04:58.588Z,958.90
2018-11-11T07:05:58.530Z,958.97
2018-11-11T07:06:58.467Z,959.02
2018-11-11T07:07:58.394Z,959.05
2018-11-11T07:08:58.325Z,959.09
2018-11-11T07:09:58.265Z,959.08
2018-11-11T07:10:58.201Z,959.07
2018-11-11T07:11:58.137Z,959.11
2018-11-11T07:12:58.071Z,959.08
2018-11-11T07:13:58.077Z,959.09
2018-11-11T07:14:57.944Z,959.14
2018-11-11T07:15:57.882Z,959.12
2018-11-11T07:16:57.824Z,959.10
2018-11-11T07:17:57.755Z,959.11
2018-11-11T07:18:57.681Z,959.10
2018-11-11T07:19:57.620Z,959.15
2018-11-11T07:20:57.574Z,959.13
2018-11-11T07:21:57.492Z,959.14
2018-11-11T07:22:57.433Z,959.07
2018-11-11T07:23:57.424Z,959.03
2018-11-11T07:24:57.299Z,959.04
2018-11-11T07:25:57.236Z,959.04
2018-11-11T07:26:57.171Z,959.09
2018-11-11T07:27:57.105Z,959.14
2018-11-11T07:28:57.048Z,959.19
2018-11-11T07:29:56.988Z,959.22
2018-11-11T07:30:56.924Z,959.31
2018-11-11T07:31:56.848Z,959.42
2018-11-11T07:32:56.786Z,959.46
2018-11-11T07:33:56.721Z,959.56
2018-11-11T07:34:56.656Z,959.60
2018-11-11T07:35:56.622Z,959.64
2018-11-11T07:36:56.533Z,959.66
2018-11-11T07:37:56.469Z,959.74
2018-11-11T07:38:56.405Z,959.75
2018-11-11T07:39:56.338Z,959.79
2018-11-11T07:40:56.277Z,959.81
2018-11-11T07:41:56.207Z,959.79
2018-11-11T07:42:56.144Z,959.77
2018-11-11T07:43:56.085Z,959.75
2018-11-11T07:44:56.013Z,959.83
2018-11-11T07:45:55.952Z,959.95
2018-11-11T07:46:55.891Z,960.01
2018-11-11T07:47:55.948Z,960.02
2018-11-11T07:48:55.756Z,960.05
2018-11-11T07:49:55.693Z,960.08
2018-11-11T07:50:55.633Z,960.18
2018-11-11T07:51:55.583Z,960.14
2018-11-11T07:52:55.521Z,960.11
2018-11-11T07:53:55.442Z,960.02
2018-11-11T07:54:55.450Z,959.96
2018-11-11T07:55:55.309Z,959.88
2018-11-11T07:56:55.252Z,959.84
2018-11-11T07:57:55.178Z,959.82
2018-11-11T07:58:55.116Z,959.80
2018-11-11T07:59:55.055Z,959.81
2018-11-11T08:00:54.988Z,959.80
2018-11-11T08:01:54.928Z,959.81
2018-11-11T08:02:54.859Z,959.87
2018-11-11T08:03:54.794Z,959.82
2018-11-11T08:04:54.728Z,959.89
2018-11-11T08:05:54.674Z,959.86
2018-11-11T08:06:54.616Z,959.83
2018-11-11T08:07:54.537Z,959.70
2018-11-11T08:08:54.475Z,959.63
2018-11-11T08:09:54.412Z,959.70
2018-11-11T08:10:54.380Z,959.91
2018-11-11T08:11:54.282Z,960.01
2018-11-11T08:12:54.222Z,960.06
2018-11-11T08:13:54.157Z,960.06
2018-11-11T08:14:54.094Z,960.10
2018-11-11T08:15:54.028Z,960.10
2018-11-11T08:16:54.095Z,960.10
2018-11-11T08:17:53.896Z,960.04
2018-11-11T08:18:53.834Z,959.99
2018-11-11T08:19:53.788Z,959.97
2018-11-11T08:20:53.705Z,960.02
2018-11-11T08:21:53.642Z,960.08
2018-11-11T08:22:53.580Z,960.16
2018-11-11T08:23:53.515Z,960.21
2018-11-11T08:24:53.452Z,960.18
2018-11-11T08:25:53.387Z,960.15
2018-11-11T08:26:53.326Z,960.15
2018-11-11T08:27:53.266Z,960.13
2018-11-11T08:28:53.204Z,960.06
2018-11-11T08:29:53.140Z,960.02
2018-11-11T08:30:53.065Z,960.04
2018-11-11T08:31:53.005Z,960.06
2018-11-11T08:32:52.946Z,960.07
2018-11-11T08:33:52.875Z,960.11
2018-11-11T08:34:52.820Z,960.26
2018-11-11T08:35:52.748Z,960.36
2018-11-11T08:36:52.686Z,960.35
2018-11-11T08:37:52.622Z,960.33
2018-11-11T08:38:52.559Z,960.43
2018-11-11T08:39:52.494Z,960.52
2018-11-11T08:40:52.436Z,960.53
2018-11-11T08:41:52.365Z,960.49
2018-11-11T08:42:52.305Z,960.64
2018-11-11T08:43:52.239Z,960.67
2018-11-11T08:44:52.193Z,960.67
2018-11-11T08:45:52.113Z,960.69
2018-11-11T08:46:52.048Z,960.77
2018-11-11T08:47:51.985Z,960.80
2018-11-11T08:48:51.938Z,960.80
2018-11-11T08:49:51.856Z,960.73
2018-11-11T08:50:51.794Z,960.75
2018-11-11T08:51:51.729Z,960.77
2018-11-11T08:52:51.664Z,960.73
2018-11-11T08:53:51.600Z,960.73
2018-11-11T08:54:51.539Z,960.76
2018-11-11T08:55:51.474Z,960.84
2018-11-11T08:56:51.429Z,960.89
2018-11-11T08:57:51.397Z,960.86
2018-11-11T08:58:51.291Z,960.85
2018-11-11T08:59:51.214Z,960.82
2018-11-11T09:00:51.157Z,960.84
2018-11-11T09:01:51.105Z,960.98
2018-11-11T09:02:51.030Z,961.07
2018-11-11T09:03:50.966Z,961.17
2018-11-11T09:04:50.921Z,961.36
2018-11-11T09:05:50.839Z,961.42
2018-11-11T09:06:50.778Z,961.39
2018-11-11T09:07:50.710Z,961.34
2018-11-11T09:08:50.648Z,961.35
2018-11-11T09:09:50.587Z,961.38
2018-11-11T09:10:50.521Z,961.42
2018-11-11T09:11:50.456Z,961.48
2018-11-11T09:12:50.391Z,961.42
2018-11-11T09:13:50.339Z,961.45
2018-11-11T09:14:50.270Z,961.58
2018-11-11T09:15:50.198Z,961.59
2018-11-11T09:16:50.141Z,961.55
2018-11-11T09:17:50.090Z,961.54
2018-11-11T09:18:50.017Z,961.62
2018-11-11T09:19:49.945Z,961.68
2018-11-11T09:20:49.888Z,961.66
2018-11-11T09:21:49.819Z,961.69
2018-11-11T09:22:49.758Z,961.69
2018-11-11T09:23:49.739Z,961.74
2018-11-11T09:24:49.635Z,961.80
2018-11-11T09:25:49.576Z,961.77
2018-11-11T09:26:49.513Z,961.77
2018-11-11T09:27:49.439Z,961.77
2018-11-11T09:28:49.372Z,961.77
2018-11-11T09:29:49.313Z,961.78
2018-11-11T09:30:49.260Z,961.80
2018-11-11T09:31:49.184Z,961.80
2018-11-11T09:32:49.125Z,961.82
2018-11-11T09:33:49.056Z,961.80
2018-11-11T09:34:48.993Z,961.75
2018-11-11T09:35:48.928Z,961.75
2018-11-11T09:36:48.867Z,961.72
2018-11-11T09:37:48.802Z,961.74
2018-11-11T09:38:48.773Z,961.70
2018-11-11T09:39:48.672Z,961.79
2018-11-11T09:40:48.620Z,961.83
2018-11-11T09:41:48.546Z,961.90
2018-11-11T09:42:48.493Z,961.94
2018-11-11T09:43:48.421Z,961.90
2018-11-11T09:44:48.357Z,961.91
2018-11-11T09:45:48.295Z,961.85
2018-11-11T09:46:48.229Z,961.81
2018-11-11T09:47:48.187Z,961.75
2018-11-11T09:48:48.102Z,961.70
2018-11-11T09:49:48.041Z,961.69
2018-11-11T09:50:47.973Z,961.65
2018-11-11T09:51:47.918Z,961.69
2018-11-11T09:52:47.870Z,961.75
2018-11-11T09:53:47.824Z,961.78
2018-11-11T09:54:47.723Z,961.80
2018-11-11T09:55:47.657Z,961.80
2018-11-11T09:56:47.592Z,961.79
2018-11-11T09:57:47.532Z,961.81
2018-11-11T09:58:47.510Z,961.73
2018-11-11T09:59:47.441Z,961.76
2018-11-11T10:00:47.341Z,961.74
2018-11-11T10:01:47.280Z,961.68
2018-11-11T10:02:47.217Z,961.64
2018-11-11T10:03:47.147Z,961.67
2018-11-11T10:04:47.108Z,961.64
2018-11-11T10:05:47.022Z,961.69
2018-11-11T10:06:47.100Z,961.72
2018-11-11T10:07:46.899Z,961.71
2018-11-11T10:08:46.829Z,961.68
2018-11-11T10:09:46.787Z,961.65
2018-11-11T10:10:46.791Z,961.66
2018-11-11T10:11:46.640Z,961.64
2018-11-11T10:12:46.625Z,961.65
2018-11-11T10:13:46.508Z,961.59
2018-11-11T10:14:46.449Z,961.59
2018-11-11T10:15:46.397Z,961.53
2018-11-11T10:16:46.321Z,961.45
2018-11-11T10:17:46.258Z,961.38
2018-11-11T10:18:46.195Z,961.36
2018-11-11T10:19:46.132Z,961.35
2018-11-11T10:20:46.094Z,961.32
2018-11-11T10:21:46.011Z,961.35
2018-11-11T10:22:45.941Z,961.35
2018-11-11T10:23:45.879Z,961.36
2018-11-11T10:24:45.824Z,961.31
2018-11-11T10:25:45.756Z,961.28
2018-11-11T10:26:45.687Z,961.30
2018-11-11T10:27:45.638Z,961.23
2018-11-11T10:28:45.581Z,961.16
2018-11-11T10:29:45.565Z,961.07
2018-11-11T10:30:45.436Z,961.02
2018-11-11T10:31:45.370Z,961.01
2018-11-11T10:32:45.303Z,961.07
2018-11-11T10:33:45.243Z,961.05
2018-11-11T10:34:45.179Z,961.09
2018-11-11T10:35:45.117Z,961.08
2018-11-11T10:36:45.056Z,960.99
2018-11-11T10:37:44.989Z,960.99
2018-11-11T10:38:44.924Z,961.00
2018-11-11T10:39:44.868Z,960.85
2018-11-11T10:40:44.808Z,960.88
2018-11-11T10:41:44.734Z,960.92
2018-11-11T10:42:44.668Z,960.95
2018-11-11T10:43:44.606Z,960.97
2018-11-11T10:44:44.546Z,960.86
2018-11-11T10:45:44.480Z,960.78
2018-11-11T10:46:44.415Z,960.82
2018-11-11T10:47:44.352Z,960.84
2018-11-11T10:48:44.291Z,960.78
2018-11-11T10:49:44.226Z,960.79
2018-11-11T10:50:44.166Z,960.76
2018-11-11T10:51:44.098Z,960.80
2018-11-11T10:52:44.034Z,960.81
2018-11-11T10:53:43.975Z,960.82
2018-11-11T10:54:43.921Z,960.82
2018-11-11T10:55:43.846Z,960.81
2018-11-11T10:56:43.792Z,960.82
2018-11-11T10:57:43.718Z,960.87
2018-11-11T10:58:43.670Z,960.88
2018-11-11T10:59:43.594Z,960.81
2018-11-11T11:00:43.544Z,960.79
2018-11-11T11:01:43.465Z,960.79
2018-11-11T11:02:43.402Z,960.77
2018-11-11T11:03:43.339Z,960.79
2018-11-11T11:04:43.275Z,960.77
2018-11-11T11:05:43.214Z,960.81
2018-11-11T11:06:43.151Z,960.82
2018-11-11T11:07:43.088Z,960.92
2018-11-11T11:08:43.022Z,960.95
2018-11-11T11:09:42.961Z,960.97
2018-11-11T11:10:42.902Z,960.96
2018-11-11T11:11:42.835Z,960.86
2018-11-11T11:12:42.772Z,960.84
2018-11-11T11:13:42.757Z,960.89
2018-11-11T11:14:42.647Z,960.96
2018-11-11T11:15:42.603Z,960.98
2018-11-11T11:16:42.518Z,960.98
2018-11-11T11:17:42.468Z,960.98
2018-11-11T11:18:42.396Z,961.02
2018-11-11T11:19:42.329Z,961.00
2018-11-11T11:20:42.265Z,960.98
2018-11-11T11:21:42.206Z,960.96
2018-11-11T11:22:42.143Z,961.04
2018-11-11T11:23:42.078Z,961.10
2018-11-11T11:24:42.016Z,961.11
2018-11-11T11:25:42.019Z,961.06
2018-11-11T11:26:41.891Z,961.11
2018-11-11T11:27:41.829Z,961.07
2018-11-11T11:28:41.767Z,961.04
2018-11-11T11:29:41.704Z,961.06
2018-11-11T11:30:41.642Z,961.06
2018-11-11T11:31:41.732Z,961.05
2018-11-11T11:32:41.517Z,961.06
2018-11-11T11:33:41.451Z,961.07
2018-11-11T11:34:41.393Z,961.05
2018-11-11T11:35:41.392Z,961.03
2018-11-11T11:36:41.273Z,960.98
2018-11-11T11:37:41.201Z,960.98
2018-11-11T11:38:41.141Z,961.01
2018-11-11T11:39:41.073Z,961.01
2018-11-11T11:40:41.017Z,960.99
2018-11-11T11:41:40.966Z,960.96
2018-11-11T11:42:40.884Z,960.93
2018-11-11T11:43:40.831Z,960.97
2018-11-11T11:44:40.773Z,960.96
2018-11-11T11:45:40.700Z,960.93
2018-11-11T11:46:40.638Z,960.91
2018-11-11T11:47:40.580Z,960.95
2018-11-11T11:48:40.515Z,960.93
2018-11-11T11:49:40.452Z,960.95
2018-11-11T11:50:40.396Z,960.99
2018-11-11T11:51:40.340Z,961.02
2018-11-11T11:52:40.268Z,961.04
2018-11-11T11:53:40.201Z,961.09
2018-11-11T11:54:40.138Z,961.07
2018-11-11T11:55:40.074Z,961.11
2018-11-11T11:56:40.010Z,961.13
2018-11-11T11:57:39.952Z,961.10
2018-11-11T11:58:39.896Z,961.08
2018-11-11T11:59:39.825Z,961.08
2018-11-11T12:00:39.765Z,961.07
2018-11-11T12:01:39.702Z,961.07
2018-11-11T12:02:39.638Z,960.99
2018-11-11T12:03:39.575Z,960.92
2018-11-11T12:04:39.511Z,960.92
2018-11-11T12:05:39.464Z,960.88
2018-11-11T12:06:39.400Z,960.88
2018-11-11T12:07:39.324Z,960.91
2018-11-11T12:08:39.372Z,960.92
2018-11-11T12:09:39.204Z,960.95
2018-11-11T12:10:39.144Z,960.91
2018-11-11T12:11:39.077Z,960.89
2018-11-11T12:12:39.036Z,960.89
2018-11-11T12:13:38.954Z,960.89
2018-11-11T12:14:38.907Z,960.90
2018-11-11T12:15:38.828Z,960.91
2018-11-11T12:16:38.847Z,960.94
2018-11-11T12:17:38.707Z,960.95
2018-11-11T12:18:38.645Z,960.92
2018-11-11T12:19:38.576Z,960.95
2018-11-11T12:20:38.517Z,960.97
2018-11-11T12:21:38.468Z,960.97
2018-11-11T12:22:38.391Z,960.94
2018-11-11T12:23:38.328Z,960.98
2018-11-11T12:24:38.268Z,960.97
2018-11-11T12:25:38.209Z,960.93
2018-11-11T12:26:38.144Z,960.95
2018-11-11T12:27:38.081Z,960.96